Time;durP1;ratioP1;P1;durP2;ratioP2;P2;SDS_P1;SDS_P2;PMS_P1;PMS_P2;Temp;Humidity;BMP_temperature;BMP_pressure;BME280_temperature;BME280_humidity;BME280_pressure;Samples;Min_cycle;Max_cycle;Signal;HPM_P1;HPM_P2
2022/07/17 00:01:16;;;;;;;4.25;2.88;;;;;;;15.90;66.88;96698.94;4989701;28;24991;-74
2022/07/17 00:03:42;;;;;;;3.60;2.67;;;;;;;15.89;66.89;96703.34;4985477;28;24429;-75
2022/07/17 00:06:10;;;;;;;3.92;2.58;;;;;;;15.92;66.27;96703.13;4990066;28;24461;-75
2022/07/17 00:08:36;;;;;;;2.90;2.60;;;;;;;15.93;66.95;96703.94;4985260;28;24440;-75
2022/07/17 00:11:03;;;;;;;3.42;2.45;;;;;;;15.72;67.68;96701.03;4990153;28;24449;-74
2022/07/17 00:13:29;;;;;;;2.92;2.20;;;;;;;15.60;67.55;96701.84;4986058;28;24483;-74
2022/07/17 00:15:56;;;;;;;4.35;2.50;;;;;;;15.79;66.63;96698.84;4992024;28;25000;-74
2022/07/17 00:18:23;;;;;;;3.10;2.10;;;;;;;15.81;65.97;96691.75;4986326;28;24429;-74
2022/07/17 00:20:49;;;;;;;3.22;2.00;;;;;;;15.28;67.59;96694.44;4990295;28;24431;-77
2022/07/17 00:23:17;;;;;;;6.05;2.47;;;;;;;15.06;68.29;96686.34;4987180;28;24433;-76
2022/07/17 00:25:43;;;;;;;2.70;2.10;;;;;;;15.03;68.23;96691.78;4990131;28;24452;-77
2022/07/17 00:28:10;;;;;;;5.03;2.13;;;;;;;14.64;70.73;96683.81;4986962;28;24437;-75
2022/07/17 00:30:38;;;;;;;3.47;2.63;;;;;;;14.52;71.32;96687.22;4984330;28;25012;-75
2022/07/17 00:33:04;;;;;;;6.03;2.72;;;;;;;14.53;71.04;96683.66;4977045;28;24508;-74
2022/07/17 00:35:31;;;;;;;2.70;2.10;;;;;;;14.59;70.86;96685.91;5000877;28;24441;-75
2022/07/17 00:37:57;;;;;;;3.78;2.30;;;;;;;14.41;72.16;96687.03;4991456;28;24433;-75
2022/07/17 00:40:26;;;;;;;5.20;2.20;;;;;;;14.46;71.90;96692.78;4993761;28;24476;-75
2022/07/17 00:42:53;;;;;;;3.87;2.60;;;;;;;14.37;72.63;96689.00;4991694;28;24505;-76
2022/07/17 00:45:24;;;;;;;4.90;2.58;;;;;;;14.38;73.42;96698.47;4989310;28;24481;-75
2022/07/17 00:47:55;;;;;;;3.63;2.55;;;;;;;14.46;72.80;96693.66;4991775;28;24842;-75
2022/07/17 00:50:22;;;;;;;3.03;2.30;;;;;;;14.55;72.85;96694.03;4989386;28;24588;-77
2022/07/17 00:52:49;;;;;;;2.95;2.10;;;;;;;14.66;71.75;96689.78;4992254;28;24429;-77
2022/07/17 00:55:18;;;;;;;8.35;2.70;;;;;;;14.71;71.60;96690.31;4990686;28;24444;-75
2022/07/17 00:57:47;;;;;;;8.15;2.45;;;;;;;14.60;72.38;96695.38;4992377;28;24448;-75
2022/07/17 01:00:14;;;;;;;3.47;2.60;;;;;;;14.45;73.92;96691.13;4990059;28;24483;-75
2022/07/17 01:02:41;;;;;;;3.55;2.33;;;;;;;14.47;73.18;96690.09;4985621;28;24440;-75
2022/07/17 01:05:07;;;;;;;3.72;2.20;;;;;;;14.49;72.56;96688.25;4989779;28;24983;-74
2022/07/17 01:07:34;;;;;;;2.80;2.20;;;;;;;14.45;72.11;96686.72;4992440;28;24449;-75
2022/07/17 01:10:01;;;;;;;7.78;2.67;;;;;;;14.45;71.51;96691.13;4989688;28;24905;-75
2022/07/17 01:12:28;;;;;;;4.32;2.20;;;;;;;14.30;72.70;96687.72;4992679;28;24447;-74
2022/07/17 01:14:57;;;;;;;4.43;2.20;;;;;;;14.17;73.47;96682.44;4990179;28;24434;-75
2022/07/17 01:17:23;;;;;;;5.00;2.17;;;;;;;14.15;73.22;96689.50;4992974;28;24433;-75
2022/07/17 01:19:50;;;;;;;3.30;2.10;;;;;;;14.20;73.33;96686.59;4990169;28;24440;-75
2022/07/17 01:22:18;;;;;;;3.88;2.17;;;;;;;14.20;73.91;96687.47;4992765;28;24436;-75
2022/07/17 01:24:44;;;;;;;4.60;3.00;;;;;;;14.36;73.99;96681.28;4989834;28;24445;-75
2022/07/17 01:27:11;;;;;;;6.65;2.95;;;;;;;14.20;74.75;96682.25;4993085;28;24507;-75
2022/07/17 01:29:39;;;;;;;3.05;2.65;;;;;;;14.25;74.79;96687.19;4985269;28;25013;-75
2022/07/17 01:32:06;;;;;;;8.10;3.10;;;;;;;14.15;75.55;96692.09;4991706;28;24480;-75
2022/07/17 01:34:33;;;;;;;4.18;3.05;;;;;;;14.33;74.72;96682.31;4989362;28;25063;-75
2022/07/17 01:36:59;;;;;;;3.83;2.97;;;;;;;14.47;74.10;96687.50;4992700;28;24436;-75
2022/07/17 01:42:07;;;;;;;3.83;2.87;;;;;;;14.56;73.08;96680.88;4980134;28;24421;-76
2022/07/17 01:44:34;;;;;;;3.95;2.70;;;;;;;14.57;72.55;96685.13;4984862;28;24448;-75
2022/07/17 01:47:00;;;;;;;4.95;2.83;;;;;;;14.47;73.27;96687.50;4993312;28;24989;-75
2022/07/17 01:49:27;;;;;;;3.25;2.28;;;;;;;14.31;73.54;96691.16;4985732;28;24437;-75
2022/07/17 01:51:53;;;;;;;3.47;2.50;;;;;;;14.14;73.67;96681.81;4992724;28;24814;-75
2022/07/17 01:54:20;;;;;;;5.60;2.30;;;;;;;14.03;74.29;96685.06;4990660;28;25000;-75
2022/07/17 01:56:47;;;;;;;3.00;2.38;;;;;;;13.89;74.79;96682.47;4991401;28;25064;-75
2022/07/17 01:59:14;;;;;;;5.00;2.90;;;;;;;13.94;73.90;96685.63;4987506;28;24433;-74
2022/07/17 02:01:41;;;;;;;2.72;2.17;;;;;;;13.76;75.45;96682.41;4990595;28;25045;-74
2022/07/17 02:04:07;;;;;;;5.90;2.50;;;;;;;13.59;76.72;96686.00;4991248;28;24799;-75
2022/07/17 02:06:34;;;;;;;2.80;2.25;;;;;;;13.50;77.97;96686.56;4990248;28;25009;-74
2022/07/17 02:09:00;;;;;;;3.70;2.38;;;;;;;13.50;77.21;96681.38;4987621;28;25005;-74
2022/07/17 02:11:26;;;;;;;4.50;2.57;;;;;;;13.65;75.77;96682.22;4990521;28;25041;-76
2022/07/17 02:13:54;;;;;;;3.50;2.70;;;;;;;13.67;74.99;96675.13;4992049;28;24428;-75
2022/07/17 02:16:21;;;;;;;3.22;2.25;;;;;;;13.56;75.65;96675.78;4990571;28;24441;-76
2022/07/17 02:18:47;;;;;;;4.22;2.80;;;;;;;13.10;80.02;96675.06;4987954;28;24441;-75
2022/07/17 02:21:13;;;;;;;3.83;2.22;;;;;;;12.87;80.48;96671.16;4991243;28;24460;-75
2022/07/17 02:23:40;;;;;;;4.55;2.95;;;;;;;12.91;79.77;96670.91;4984130;28;24440;-77
2022/07/17 02:26:07;;;;;;;2.70;2.30;;;;;;;12.92;80.41;96675.19;4991141;28;24807;-76
2022/07/17 02:28:33;;;;;;;4.50;2.47;;;;;;;12.95;80.46;96675.00;4992684;28;24539;-76
2022/07/17 02:31:01;;;;;;;6.50;2.72;;;;;;;13.00;80.51;96667.78;4990818;28;24457;-76
2022/07/17 02:33:27;;;;;;;4.45;2.75;;;;;;;13.07;80.32;96668.25;4988323;28;24433;-76
2022/07/17 02:35:54;;;;;;;3.60;2.50;;;;;;;13.17;80.84;96666.81;4989417;28;24444;-76
2022/07/17 02:38:21;;;;;;;3.97;2.45;;;;;;;13.30;80.21;96670.38;4990755;28;24838;-74
2022/07/17 02:40:47;;;;;;;3.97;2.45;;;;;;;13.41;79.61;96664.53;4988472;28;24811;-75
2022/07/17 02:43:13;;;;;;;3.20;2.40;;;;;;;13.48;79.37;96660.63;4991755;28;24457;-75
2022/07/17 02:45:40;;;;;;;3.63;2.58;;;;;;;13.58;79.41;96662.69;4990795;28;24488;-75
2022/07/17 02:48:08;;;;;;;3.80;2.22;;;;;;;13.56;80.03;96660.16;4991197;28;24459;-76
2022/07/17 02:50:34;;;;;;;3.05;2.20;;;;;;;13.61;79.90;96670.28;4987671;28;24792;-76
2022/07/17 02:53:01;;;;;;;2.50;2.30;;;;;;;13.64;79.79;96665.72;4991378;28;24444;-76
2022/07/17 02:55:27;;;;;;;4.03;2.53;;;;;;;13.69;79.36;96662.88;4988079;28;24441;-76
2022/07/17 02:57:54;;;;;;;3.28;2.50;;;;;;;13.75;79.23;96655.50;4990778;28;25024;-77
2022/07/17 03:00:21;;;;;;;5.05;2.75;;;;;;;13.77;79.12;96665.84;4988260;28;24795;-76
2022/07/17 03:02:48;;;;;;;2.70;2.33;;;;;;;13.76;79.25;96659.81;4985976;28;24457;-76
2022/07/17 03:05:17;;;;;;;2.65;2.10;;;;;;;13.83;77.95;96662.00;4988197;28;24437;-74
2022/07/17 03:07:44;;;;;;;6.50;2.67;;;;;;;14.00;76.01;96648.78;4985345;28;24436;-75
2022/07/17 03:10:11;;;;;;;2.97;2.33;;;;;;;13.70;77.05;96654.13;4988409;28;24523;-74
2022/07/17 03:12:38;;;;;;;4.33;2.60;;;;;;;13.38;78.94;96653.47;4985805;28;24530;-75
2022/07/17 03:15:05;;;;;;;4.20;2.40;;;;;;;13.40;77.49;96660.25;4988391;28;24437;-75
2022/07/17 03:17:32;;;;;;;3.47;2.60;;;;;;;13.26;77.45;96662.84;4986033;28;24459;-75
2022/07/17 03:19:58;;;;;;;4.22;2.45;;;;;;;13.05;77.12;96649.28;4988837;28;24441;-77
2022/07/17 03:22:26;;;;;;;2.35;2.05;;;;;;;12.80;79.62;96650.72;4985834;28;24440;-76
2022/07/17 03:24:53;;;;;;;4.78;2.35;;;;;;;12.87;77.74;96663.34;4988491;28;24794;-76
2022/07/17 03:27:19;;;;;;;2.38;2.08;;;;;;;12.77;78.32;96660.47;4985696;28;24499;-76
2022/07/17 03:29:46;;;;;;;4.15;2.45;;;;;;;12.63;80.13;96652.63;4988543;28;24436;-76
2022/07/17 03:32:13;;;;;;;3.58;2.50;;;;;;;12.51;80.20;96662.78;4984696;28;24466;-77
2022/07/17 03:34:39;;;;;;;3.03;2.30;;;;;;;12.43;81.79;96664.97;4982243;28;24452;-75
2022/07/17 03:37:06;;;;;;;3.42;2.53;;;;;;;12.46;82.69;96658.75;4985971;28;24440;-74
2022/07/17 03:39:34;;;;;;;3.03;2.67;;;;;;;12.39;84.13;96660.03;4994985;28;24435;-73
2022/07/17 03:42:00;;;;;;;6.28;2.45;;;;;;;12.43;83.98;96654.59;4986745;28;24480;-74
2022/07/17 03:44:26;;;;;;;5.40;2.40;;;;;;;12.39;84.68;96647.88;4990519;28;24440;-74
2022/07/17 03:46:53;;;;;;;3.95;2.72;;;;;;;12.39;85.25;96652.25;4988699;28;24436;-74
2022/07/17 03:49:20;;;;;;;4.07;2.70;;;;;;;12.39;85.69;96653.09;4990218;28;24978;-76
2022/07/17 03:51:46;;;;;;;4.25;2.90;;;;;;;12.41;85.96;96659.03;4987033;28;24864;-76
2022/07/17 03:54:13;;;;;;;3.17;2.53;;;;;;;12.53;85.50;96657.50;4997083;28;24425;-74
2022/07/17 03:56:41;;;;;;;4.30;2.45;;;;;;;12.64;85.40;96654.28;4981323;28;24800;-74
2022/07/17 03:59:07;;;;;;;6.13;2.72;;;;;;;12.77;82.70;96653.50;4994079;28;24428;-74
2022/07/17 04:01:34;;;;;;;2.80;2.20;;;;;;;12.79;81.45;96656.88;4990509;28;24460;-75
2022/07/17 04:04:00;;;;;;;5.00;2.53;;;;;;;12.78;80.19;96662.13;4989780;28;24971;-76
2022/07/17 04:06:27;;;;;;;3.13;2.53;;;;;;;12.58;81.33;96656.31;5012081;23;24465;-76
2022/07/17 04:08:53;;;;;;;2.45;2.25;;;;;;;12.58;80.50;96652.88;5009577;28;24435;-77
2022/07/17 04:11:20;;;;;;;3.83;2.55;;;;;;;12.41;82.17;96656.41;5008150;28;24672;-76
2022/07/17 04:13:49;;;;;;;3.33;2.53;;;;;;;12.35;82.61;96659.38;5012201;28;24464;-73
2022/07/17 04:16:15;;;;;;;4.40;2.63;;;;;;;12.42;83.04;96652.06;4993417;28;24437;-76
2022/07/17 04:18:42;;;;;;;3.72;2.78;;;;;;;12.31;84.07;96655.25;4992074;28;25001;-76
2022/07/17 04:21:10;;;;;;;3.58;2.60;;;;;;;12.17;85.33;96666.41;4989290;28;25024;-73
2022/07/17 04:23:37;;;;;;;5.28;3.05;;;;;;;12.09;85.60;96655.63;4991887;28;24441;-75
2022/07/17 04:26:06;;;;;;;3.03;2.27;;;;;;;12.03;86.60;96663.75;4989658;28;24437;-76
2022/07/17 04:28:32;;;;;;;3.08;2.58;;;;;;;12.06;87.36;96660.97;4992042;28;24518;-75
2022/07/17 04:31:00;;;;;;;2.50;2.30;;;;;;;12.17;87.59;96666.41;4985866;28;25004;-75
2022/07/17 04:33:27;;;;;;;6.63;2.80;;;;;;;12.31;86.97;96666.50;4990114;28;24436;-75
2022/07/17 04:35:53;;;;;;;3.05;2.25;;;;;;;12.48;86.21;96670.75;4989160;28;24436;-75
2022/07/17 04:38:20;;;;;;;4.93;2.50;;;;;;;12.58;86.04;96671.06;4984085;28;24429;-73
2022/07/17 04:40:47;;;;;;;6.43;2.60;;;;;;;12.66;86.21;96671.47;4989222;28;24429;-74
2022/07/17 04:43:13;;;;;;;2.67;2.30;;;;;;;12.80;85.54;96666.34;4991713;28;25108;-76
2022/07/17 04:45:40;;;;;;;3.72;2.60;;;;;;;12.89;85.18;96664.94;4985806;28;24441;-76
2022/07/17 04:48:08;;;;;;;4.07;2.60;;;;;;;13.00;85.10;96662.56;4991661;28;24437;-75
2022/07/17 04:50:34;;;;;;;3.58;2.50;;;;;;;13.10;85.09;96667.25;4988956;28;24429;-74
2022/07/17 04:53:01;;;;;;;5.87;2.90;;;;;;;13.25;84.58;96666.38;4991745;28;25058;-74
2022/07/17 04:55:28;;;;;;;3.90;2.50;;;;;;;13.40;83.72;96667.22;4989253;28;24531;-76
2022/07/17 04:57:54;;;;;;;3.07;2.63;;;;;;;13.64;82.87;96670.94;4991854;28;24448;-76
2022/07/17 05:00:21;;;;;;;6.77;3.27;;;;;;;13.81;81.27;96677.75;4989174;28;24483;-76
2022/07/17 05:02:48;;;;;;;3.10;2.58;;;;;;;13.96;81.24;96676.78;4991854;28;25040;-76
2022/07/17 05:05:16;;;;;;;3.63;2.72;;;;;;;14.09;80.31;96674.28;4989054;28;24444;-76
2022/07/17 05:07:42;;;;;;;2.78;2.42;;;;;;;14.24;79.67;96678.53;4991594;28;24474;-76
2022/07/17 05:10:09;;;;;;;10.48;2.70;;;;;;;14.40;78.57;96682.75;4988104;28;24436;-75
2022/07/17 05:12:36;;;;;;;3.00;2.30;;;;;;;14.55;77.61;96676.59;4992214;28;24449;-74
2022/07/17 05:15:03;;;;;;;4.20;2.55;;;;;;;14.46;76.07;96678.00;4987682;28;24449;-74
2022/07/17 05:17:29;;;;;;;3.33;2.55;;;;;;;14.46;76.63;96677.13;4991778;28;24437;-75
2022/07/17 05:19:56;;;;;;;3.47;2.80;;;;;;;14.49;76.54;96687.38;4987180;28;24860;-74
2022/07/17 05:22:23;;;;;;;3.90;2.92;;;;;;;14.71;75.20;96673.84;4991934;28;24435;-76
2022/07/17 05:24:50;;;;;;;3.78;2.63;;;;;;;14.87;74.83;96677.13;4989646;28;24434;-75
2022/07/17 05:27:16;;;;;;;3.88;2.70;;;;;;;14.97;74.12;96677.34;4992104;28;24436;-75
2022/07/17 05:29:43;;;;;;;3.65;2.55;;;;;;;15.08;73.24;96669.66;4988949;28;24433;-76
2022/07/17 05:32:09;;;;;;;6.95;3.03;;;;;;;15.16;72.46;96683.00;4988343;28;24457;-74
2022/07/17 05:34:36;;;;;;;3.60;2.50;;;;;;;14.90;73.77;96676.91;4983758;28;24434;-74
2022/07/17 05:37:02;;;;;;;3.95;2.47;;;;;;;15.04;72.34;96677.78;4992378;28;24807;-77
2022/07/17 05:39:30;;;;;;;8.32;2.95;;;;;;;14.95;72.16;96687.06;4990644;28;24985;-75
2022/07/17 05:41:56;;;;;;;5.30;2.77;;;;;;;15.01;71.23;96684.03;4991718;28;24520;-75
2022/07/17 05:44:23;;;;;;;3.88;2.63;;;;;;;15.06;71.39;96681.13;4991190;28;24456;-75
2022/07/17 05:46:49;;;;;;;3.55;2.50;;;;;;;15.33;70.32;96684.50;4982882;28;24496;-74
2022/07/17 05:49:16;;;;;;;4.28;2.60;;;;;;;15.52;69.31;96685.88;4991978;28;24440;-74
2022/07/17 05:51:42;;;;;;;2.57;2.37;;;;;;;15.70;69.88;96688.09;4992581;28;24484;-74
2022/07/17 05:54:09;;;;;;;2.50;2.25;;;;;;;15.80;67.20;96687.47;4992632;28;24448;-74
2022/07/17 05:56:36;;;;;;;3.28;2.53;;;;;;;16.01;69.81;96685.97;4989335;28;24452;-75
2022/07/17 05:59:03;;;;;;;4.40;2.55;;;;;;;16.21;67.43;96689.81;4992133;28;24854;-75
2022/07/17 06:01:29;;;;;;;4.57;2.30;;;;;;;16.40;67.82;96684.09;4989920;28;24562;-75
2022/07/17 06:03:56;;;;;;;7.57;2.72;;;;;;;16.78;72.36;96681.34;4992061;28;24433;-75
2022/07/17 06:06:22;;;;;;;3.53;2.55;;;;;;;16.97;73.15;96683.44;4989224;28;24444;-75
2022/07/17 06:08:49;;;;;;;3.05;2.70;;;;;;;17.26;71.11;96683.91;4986850;28;24483;-75
2022/07/17 06:11:15;;;;;;;3.13;2.30;;;;;;;17.27;69.02;96682.94;4989497;28;24433;-75
2022/07/17 06:13:43;;;;;;;2.75;2.35;;;;;;;17.38;68.56;96687.38;4986789;28;24457;-76
2022/07/17 06:16:09;;;;;;;4.13;2.67;;;;;;;17.48;66.78;96685.75;4989514;28;24494;-75
2022/07/17 06:18:36;;;;;;;3.63;2.20;;;;;;;17.66;67.98;96684.34;4986450;28;25047;-75
2022/07/17 06:21:03;;;;;;;2.95;2.38;;;;;;;17.95;68.90;96694.41;4989666;28;24479;-75
2022/07/17 06:23:30;;;;;;;2.50;2.25;;;;;;;18.18;67.30;96691.75;4984615;28;24436;-74
2022/07/17 06:25:56;;;;;;;3.05;2.30;;;;;;;18.30;65.26;96689.00;4986067;28;24649;-75
2022/07/17 06:28:23;;;;;;;4.65;2.47;;;;;;;18.46;64.77;96687.78;4986483;28;24433;-75
2022/07/17 06:30:51;;;;;;;3.80;2.30;;;;;;;18.66;65.02;96688.81;4983144;28;24440;-74
2022/07/17 06:33:17;;;;;;;3.83;2.40;;;;;;;19.05;63.44;96685.56;4989181;28;24811;-74
2022/07/17 06:35:43;;;;;;;4.60;2.00;;;;;;;19.19;61.97;96687.06;4989758;28;24436;-75
2022/07/17 06:38:10;;;;;;;2.55;1.85;;;;;;;19.33;57.91;96693.81;4987473;28;24444;-75
2022/07/17 06:40:37;;;;;;;4.05;2.05;;;;;;;19.33;57.21;96696.44;4990088;28;24528;-74
2022/07/17 06:43:06;;;;;;;3.97;2.28;;;;;;;19.65;56.98;96699.00;4987158;28;24473;-75
2022/07/17 06:45:33;;;;;;;3.00;1.90;;;;;;;19.81;54.92;96698.56;4983035;28;24468;-75
2022/07/17 06:48:01;;;;;;;3.50;2.05;;;;;;;20.18;54.30;96698.84;4987182;28;24437;-75
2022/07/17 06:50:27;;;;;;;4.53;2.10;;;;;;;20.21;53.40;96700.38;4990016;28;24433;-75
2022/07/17 06:52:54;;;;;;;5.25;2.28;;;;;;;20.59;52.71;96693.59;4987292;28;24460;-76
2022/07/17 06:55:20;;;;;;;2.08;1.77;;;;;;;20.57;52.22;96698.97;4989783;28;24441;-76
2022/07/17 06:57:47;;;;;;;3.25;1.70;;;;;;;20.68;52.77;96698.03;4986909;28;25029;-76
2022/07/17 07:00:15;;;;;;;5.20;1.98;;;;;;;21.05;51.40;96697.38;4989985;28;24441;-77
2022/07/17 07:02:41;;;;;;;2.42;1.90;;;;;;;21.00;50.91;96697.81;4981398;28;24803;-76
2022/07/17 07:05:09;;;;;;;5.20;2.13;;;;;;;21.23;49.73;96698.34;4978621;28;24799;-76
2022/07/17 07:07:38;;;;;;;4.50;2.20;;;;;;;21.30;49.67;96702.09;4986837;28;24437;-77
2022/07/17 07:10:05;;;;;;;4.25;1.77;;;;;;;21.61;50.10;96702.75;4989396;28;24958;-77
2022/07/17 07:12:31;;;;;;;2.78;2.03;;;;;;;21.82;47.96;96701.75;4988236;28;24460;-76
2022/07/17 07:14:58;;;;;;;5.50;1.80;;;;;;;21.86;46.01;96698.69;4988278;28;24460;-77
2022/07/17 07:17:24;;;;;;;2.33;1.65;;;;;;;22.17;45.81;96699.31;4989304;28;24445;-77
2022/07/17 07:19:51;;;;;;;3.70;1.80;;;;;;;22.44;46.14;96709.03;4980381;28;24436;-76
2022/07/17 07:22:19;;;;;;;2.83;1.80;;;;;;;22.48;44.42;96712.22;4990328;28;24432;-75
2022/07/17 07:24:45;;;;;;;7.30;1.95;;;;;;;22.36;43.72;96719.50;4986513;28;24487;-75
2022/07/17 07:27:11;;;;;;;4.60;2.05;;;;;;;22.75;44.41;96705.22;4990329;28;24819;-75
2022/07/17 07:29:38;;;;;;;3.33;1.52;;;;;;;22.68;43.29;96713.75;4983530;28;24536;-75
2022/07/17 07:32:05;;;;;;;3.75;1.77;;;;;;;22.08;43.97;96707.22;4985340;28;24445;-75
2022/07/17 07:34:31;;;;;;;3.17;1.98;;;;;;;22.49;44.68;96703.31;4988912;28;24997;-75
2022/07/17 07:36:58;;;;;;;2.83;1.58;;;;;;;22.82;43.15;96711.59;4990548;28;24433;-75
2022/07/17 07:39:26;;;;;;;4.18;2.00;;;;;;;23.18;42.79;96707.19;4986581;28;24440;-75
2022/07/17 07:41:52;;;;;;;3.03;1.83;;;;;;;23.49;43.28;96709.41;4990381;28;24523;-75
2022/07/17 07:44:18;;;;;;;5.07;1.90;;;;;;;23.51;43.45;96702.13;4987372;28;24437;-75
2022/07/17 07:46:45;;;;;;;3.15;1.70;;;;;;;23.42;43.51;96699.44;4990465;28;24444;-75
2022/07/17 07:49:11;;;;;;;3.25;1.73;;;;;;;23.52;42.55;96696.72;4987520;28;24862;-74
2022/07/17 07:51:38;;;;;;;2.37;1.70;;;;;;;23.32;43.23;96701.31;4985119;28;25078;-74
2022/07/17 07:54:05;;;;;;;4.45;1.63;;;;;;;23.76;41.40;96696.06;4987827;28;24456;-74
2022/07/17 07:56:33;;;;;;;2.67;1.65;;;;;;;24.02;43.84;96697.88;4990606;28;24441;-75
2022/07/17 07:59:00;;;;;;;5.18;1.77;;;;;;;24.24;42.51;96697.31;4990236;28;24491;-74
2022/07/17 08:01:26;;;;;;;5.85;1.60;;;;;;;24.16;41.32;96699.94;4985208;28;24478;-74
2022/07/17 08:03:52;;;;;;;1.90;1.45;;;;;;;24.10;40.13;96703.19;4988563;28;24818;-76
2022/07/17 08:06:19;;;;;;;2.90;1.60;;;;;;;24.28;38.91;96703.94;4985073;28;24970;-74
2022/07/17 08:08:45;;;;;;;2.35;1.75;;;;;;;24.61;39.61;96699.63;4988006;28;24441;-74
2022/07/17 08:11:12;;;;;;;1.92;1.67;;;;;;;24.56;38.68;96703.78;4985813;28;24440;-73
2022/07/17 08:13:40;;;;;;;4.90;1.70;;;;;;;24.92;39.69;96701.72;4982359;28;24591;-73
2022/07/17 08:16:07;;;;;;;3.25;1.58;;;;;;;24.74;38.32;96709.78;4984676;28;24456;-73
2022/07/17 08:18:34;;;;;;;4.43;1.92;;;;;;;24.77;40.14;96709.47;4987733;28;24499;-74
2022/07/17 08:21:01;;;;;;;2.75;1.65;;;;;;;24.86;37.76;96712.97;4985541;28;24437;-74
2022/07/17 08:23:27;;;;;;;7.10;1.98;;;;;;;24.69;37.39;96713.91;4987967;28;24425;-74
2022/07/17 08:25:54;;;;;;;2.70;1.70;;;;;;;24.66;38.78;96722.16;4985436;28;24433;-74
2022/07/17 08:28:20;;;;;;;2.75;1.38;;;;;;;24.70;37.60;96710.28;4981755;28;24479;-74
2022/07/17 08:30:48;;;;;;;1.92;1.50;;;;;;;24.72;37.35;96708.28;4984995;28;24464;-74
2022/07/17 08:33:16;;;;;;;3.17;1.63;;;;;;;25.17;38.85;96702.59;4984639;28;24460;-74
2022/07/17 08:35:42;;;;;;;1.92;1.60;;;;;;;25.30;37.21;96708.25;4985948;28;24537;-74
2022/07/17 08:38:09;;;;;;;2.00;1.53;;;;;;;25.20;35.95;96714.69;4988189;28;24537;-74
2022/07/17 08:40:39;;;;;;;3.53;1.60;;;;;;;24.92;36.11;96712.31;4987217;28;24500;-74
2022/07/17 08:43:08;;;;;;;3.92;1.77;;;;;;;25.08;35.06;96711.50;4988717;28;24432;-74
2022/07/17 08:45:35;;;;;;;2.35;1.48;;;;;;;24.99;35.59;96707.16;4986942;28;25050;-74
2022/07/17 08:48:03;;;;;;;4.60;1.98;;;;;;;24.93;36.11;96716.63;4988410;28;25002;-74
2022/07/17 08:50:32;;;;;;;1.92;1.52;;;;;;;25.72;34.72;96725.78;4987575;28;24436;-74
2022/07/17 08:52:59;;;;;;;7.97;1.90;;;;;;;25.52;33.92;96722.66;4988418;28;24475;-74
2022/07/17 08:55:26;;;;;;;3.65;1.60;;;;;;;25.50;36.97;96727.28;4987880;28;24433;-75
2022/07/17 08:57:53;;;;;;;2.38;1.48;;;;;;;25.55;35.34;96717.03;4983867;28;24436;-74
2022/07/17 09:00:22;;;;;;;1.55;1.30;;;;;;;25.66;33.53;96722.97;4992757;28;24472;-75
2022/07/17 09:02:57;;;;;;;3.67;1.50;;;;;;;25.07;33.38;96715.16;4990360;28;24989;-74
2022/07/17 09:05:28;;;;;;;7.63;1.58;;;;;;;25.37;34.07;96719.03;4991823;28;24445;-74
2022/07/17 09:07:54;;;;;;;2.30;1.70;;;;;;;25.49;34.66;96723.00;4991437;28;24520;-74
2022/07/17 09:10:32;;;;;;;1.52;1.30;;;;;;;25.81;32.05;96724.00;4992233;28;24448;-73
2022/07/17 09:13:00;;;;;;;1.70;1.50;;;;;;;25.81;33.08;96724.84;4992265;28;25044;-73
2022/07/17 09:15:27;;;;;;;2.25;1.55;;;;;;;26.04;34.61;96718.81;4991151;28;24452;-75
2022/07/17 09:17:55;;;;;;;1.75;1.20;;;;;;;25.96;31.46;96729.47;4979169;28;24993;-74
2022/07/17 09:20:22;;;;;;;4.68;1.50;;;;;;;26.15;32.51;96731.72;4990878;28;24441;-74
2022/07/17 09:23:01;;;;;;;5.03;1.60;;;;;;;26.18;31.07;96730.53;4975018;28;24445;-75
2022/07/17 09:25:36;;;;;;;2.63;1.27;;;;;;;26.23;30.36;96720.25;4989518;28;24436;-74
2022/07/17 09:28:04;;;;;;;2.70;1.15;;;;;;;26.17;30.23;96721.75;4987493;28;24429;-73
2022/07/17 09:30:31;;;;;;;6.47;1.50;;;;;;;26.29;31.99;96723.06;4983017;28;24464;-73
2022/07/17 09:32:57;;;;;;;3.70;1.60;;;;;;;26.06;32.57;96727.44;4985790;28;25054;-73
2022/07/17 09:35:24;;;;;;;6.70;1.58;;;;;;;26.08;30.93;96721.97;4990901;28;24440;-73
2022/07/17 09:37:53;;;;;;;6.90;1.80;;;;;;;26.16;33.12;96719.28;4992669;28;24440;-73
2022/07/17 09:43:02;;;;;;;3.88;2.20;;;;;;;25.94;32.93;96726.13;4986473;28;24429;-73
2022/07/17 09:45:29;;;;;;;3.13;1.70;;;;;;;25.50;33.40;96722.00;4986903;28;24444;-73
2022/07/17 09:47:57;;;;;;;5.05;1.63;;;;;;;25.82;34.29;96718.53;4992484;28;24433;-74
2022/07/17 09:50:25;;;;;;;2.55;1.63;;;;;;;25.98;31.61;96724.78;4987328;28;24432;-73
2022/07/17 09:52:55;;;;;;;1.40;1.30;;;;;;;26.27;31.38;96724.22;4986087;28;24470;-74
2022/07/17 09:55:27;;;;;;;3.67;1.58;;;;;;;26.29;31.13;96727.53;4987339;28;25033;-74
2022/07/17 09:57:55;;;;;;;4.18;1.80;;;;;;;26.27;32.86;96710.94;4986048;28;25060;-74
2022/07/17 10:00:22;;;;;;;3.58;1.27;;;;;;;26.10;29.91;96720.78;4987260;28;24440;-74
2022/07/17 10:02:49;;;;;;;3.30;1.40;;;;;;;26.41;30.04;96722.69;4985703;28;24433;-74
2022/07/17 10:05:16;;;;;;;1.80;1.35;;;;;;;26.50;30.60;96729.66;5012301;23;24467;-79
2022/07/17 10:07:45;;;;;;;2.10;1.30;;;;;;;26.38;30.85;96725.69;5035254;28;24790;-77
2022/07/17 10:10:12;;;;;;;1.73;1.27;;;;;;;25.97;28.86;96729.28;5030046;28;24797;-77
2022/07/17 10:12:43;;;;;;;2.58;1.20;;;;;;;26.11;28.28;96724.28;5027597;28;24459;-78
2022/07/17 10:15:11;;;;;;;3.17;1.45;;;;;;;26.37;29.80;96722.22;5026146;28;24849;-78
2022/07/17 10:17:37;;;;;;;1.95;1.30;;;;;;;26.43;28.45;96712.69;5013500;28;24973;-78
2022/07/17 10:20:05;;;;;;;2.88;1.20;;;;;;;26.46;28.54;96715.88;5010753;28;24440;-78
2022/07/17 10:22:42;;;;;;;2.10;1.23;;;;;;;26.67;28.73;96712.63;5013150;28;25000;-78
2022/07/17 10:25:14;;;;;;;3.47;1.27;;;;;;;26.89;28.47;96718.19;5011633;28;24973;-78
2022/07/17 10:27:49;;;;;;;4.20;1.38;;;;;;;26.59;27.13;96719.81;5013922;28;24471;-77
2022/07/17 10:30:23;;;;;;;4.22;1.48;;;;;;;26.70;26.46;96714.94;5005940;28;24471;-77
2022/07/17 10:32:54;;;;;;;1.88;1.30;;;;;;;26.82;27.61;96709.25;5008612;28;24429;-78
2022/07/17 10:35:21;;;;;;;3.08;1.40;;;;;;;26.27;26.72;96708.28;5012027;28;24916;-77
2022/07/17 10:37:48;;;;;;;2.40;1.70;;;;;;;25.18;27.80;96704.28;5013673;28;24439;-78
2022/07/17 10:40:17;;;;;;;3.42;1.60;;;;;;;26.31;29.26;96713.09;5011076;28;24439;-77
2022/07/17 10:42:56;;;;;;;1.80;1.30;;;;;;;26.46;27.22;96707.91;5010116;28;24837;-78
2022/07/17 10:45:24;;;;;;;2.60;1.50;;;;;;;26.36;27.45;96707.25;5011140;28;24476;-78
2022/07/17 10:47:54;;;;;;;2.55;1.38;;;;;;;26.93;27.58;96716.81;5008040;28;24992;-77
2022/07/17 10:50:23;;;;;;;2.08;1.10;;;;;;;25.86;26.01;96700.44;5012250;28;24432;-78
2022/07/17 10:53:11;;;;;;;2.22;1.50;;;;;;;25.71;28.65;96697.63;5009366;28;24440;-78
2022/07/17 10:55:40;;;;;;;1.70;1.30;;;;;;;26.64;27.75;96702.34;5010389;28;24443;-78
2022/07/17 10:58:17;;;;;;;2.42;1.63;;;;;;;27.01;26.50;96695.50;5009676;28;24463;-78
2022/07/17 11:00:44;;;;;;;5.35;1.50;;;;;;;26.93;26.08;96700.88;5012897;28;24440;-77
2022/07/17 11:03:11;;;;;;;2.05;1.30;;;;;;;27.39;29.00;96699.06;5009157;28;24478;-78
2022/07/17 11:05:38;;;;;;;2.42;2.13;;;;;;;27.32;29.99;96698.13;5005839;28;24790;-78
2022/07/17 11:08:09;;;;;;;2.90;1.65;;;;;;;27.39;27.34;96699.06;5008479;28;24996;-78
2022/07/17 11:10:36;;;;;;;2.67;1.50;;;;;;;27.60;27.07;96709.03;5012024;28;24528;-79
2022/07/17 11:13:09;;;;;;;2.13;1.40;;;;;;;27.55;27.74;96702.59;5009989;28;24482;-77
2022/07/17 11:15:44;;;;;;;2.88;1.40;;;;;;;27.47;25.83;96703.47;5006521;28;24440;-77
2022/07/17 11:18:12;;;;;;;1.17;1.05;;;;;;;27.38;25.71;96700.06;5009226;28;24795;-78
2022/07/17 11:20:48;;;;;;;1.97;1.30;;;;;;;27.41;24.73;96698.91;5013044;28;24476;-78
2022/07/17 11:23:15;;;;;;;2.40;1.30;;;;;;;27.65;24.41;96711.16;5010601;28;24464;-77
2022/07/17 11:25:52;;;;;;;1.20;1.10;;;;;;;26.74;23.70;96702.97;5012254;28;24536;-78
2022/07/17 11:28:31;;;;;;;1.73;1.30;;;;;;;27.11;26.35;96701.44;5011740;28;24428;-77
2022/07/17 11:30:59;;;;;;;3.30;1.30;;;;;;;27.21;26.00;96701.19;5012468;28;24451;-78
2022/07/17 11:33:26;;;;;;;3.35;1.45;;;;;;;27.11;24.87;96701.44;5001212;28;24435;-78
2022/07/17 11:35:54;;;;;;;1.75;1.30;;;;;;;27.31;28.49;96696.47;5007085;28;24441;-77
2022/07/17 11:38:25;;;;;;;3.90;1.73;;;;;;;26.71;25.51;96698.00;5010584;28;24471;-78
2022/07/17 11:40:52;;;;;;;7.40;2.25;;;;;;;26.18;25.69;96698.69;5010941;28;24432;-78